Time;durP1;ratioP1;P1;durP2;ratioP2;P2;SDS_P1;SDS_P2;PMS_P1;PMS_P2;Temp;Humidity;BMP_temperature;BMP_pressure;BME280_temperature;BME280_humidity;BME280_pressure;Samples;Min_cycle;Max_cycle;Signal;HPM_P1;HPM_P2
2022/10/11 00:00:47;;;;;;;11.73;8.95;;;;;;;13.99;85.34;98575.78;5085822;28;20040;-83
2022/10/11 00:03:13;;;;;;;14.43;9.25;;;;;;;14.00;85.25;98572.13;5088363;28;20544;-84
2022/10/11 00:05:40;;;;;;;13.27;9.50;;;;;;;13.93;85.02;98569.50;5083705;28;20033;-83
2022/10/11 00:08:05;;;;;;;13.45;10.07;;;;;;;13.92;85.01;98582.91;5085769;28;20100;-83
2022/10/11 00:10:33;;;;;;;14.40;9.38;;;;;;;13.85;85.03;98579.47;5089561;28;20056;-84
2022/10/11 00:12:59;;;;;;;12.43;8.90;;;;;;;13.80;84.99;98595.94;5083980;28;20127;-83
2022/10/11 00:15:25;;;;;;;11.60;8.88;;;;;;;13.79;84.97;98590.84;5083413;28;20046;-83
2022/10/11 00:17:50;;;;;;;11.32;8.50;;;;;;;13.85;84.95;98595.28;5090653;28;20040;-87
2022/10/11 00:20:17;;;;;;;11.90;8.98;;;;;;;13.87;84.94;98599.34;5085621;28;20032;-88
2022/10/11 00:22:42;;;;;;;15.13;8.63;;;;;;;13.87;84.80;98595.91;5084081;28;20020;-87
2022/10/11 00:25:10;;;;;;;11.32;8.50;;;;;;;13.85;84.83;98595.28;5094520;28;20032;-87
2022/10/11 00:27:37;;;;;;;12.55;9.10;;;;;;;13.85;84.93;98595.28;5095097;28;20032;-88
2022/10/11 00:30:07;;;;;;;12.48;8.40;;;;;;;13.85;84.56;98595.28;5089929;28;20029;-86
2022/10/11 00:32:35;;;;;;;13.13;9.02;;;;;;;13.83;84.38;98607.88;5080314;28;20028;-83
2022/10/11 00:35:05;;;;;;;14.68;8.77;;;;;;;13.81;84.73;98600.19;5086947;28;20035;-84
2022/10/11 00:37:33;;;;;;;11.98;9.23;;;;;;;13.77;84.95;98601.59;5087879;28;20040;-83
2022/10/11 00:40:00;;;;;;;13.65;9.02;;;;;;;13.83;84.69;98607.88;5087074;28;20035;-83
2022/10/11 00:42:26;;;;;;;13.98;8.88;;;;;;;13.74;84.92;98606.50;5088547;28;20120;-83
2022/10/11 00:45:27;;;;;;;14.50;8.45;;;;;;;13.65;85.57;98606.72;5088437;28;20060;-88
2022/10/11 00:48:01;;;;;;;13.00;9.07;;;;;;;13.43;86.21;98597.41;5085739;28;20055;-87
2022/10/11 00:50:31;;;;;;;15.55;9.40;;;;;;;13.33;86.59;98597.06;5085613;28;20051;-88
2022/10/11 00:53:06;;;;;;;13.35;8.55;;;;;;;13.23;86.95;98592.19;5073742;28;20032;-87
2022/10/11 00:55:42;;;;;;;12.68;8.23;;;;;;;13.18;87.11;98594.59;5088157;28;20048;-87
2022/10/11 00:58:09;;;;;;;14.45;8.57;;;;;;;13.05;87.55;98597.25;5080801;28;20040;-87
2022/10/11 01:00:35;;;;;;;15.05;9.38;;;;;;;13.01;88.13;98598.66;5085163;28;20040;-83
2022/10/11 01:03:03;;;;;;;14.73;8.70;;;;;;;13.02;88.29;98606.38;5088162;28;20097;-83
2022/10/11 01:05:30;;;;;;;9.55;7.72;;;;;;;13.12;87.94;98604.13;5083860;28;20374;-83
2022/10/11 01:07:59;;;;;;;13.40;8.43;;;;;;;13.04;88.32;98600.88;5084379;28;20036;-82
2022/10/11 01:10:27;;;;;;;14.27;8.82;;;;;;;13.09;87.82;98611.63;5091463;28;20066;-88
2022/10/11 01:13:35;;;;;;;14.65;9.43;;;;;;;13.13;87.50;98613.66;5086484;28;20372;-83
2022/10/11 01:16:14;;;;;;;11.48;8.68;;;;;;;13.16;86.52;98614.25;5106994;28;20056;-83
2022/10/11 01:19:09;;;;;;;12.07;8.20;;;;;;;13.15;86.12;98615.28;5082582;28;20111;-83
2022/10/11 01:22:17;;;;;;;14.02;8.52;;;;;;;13.19;86.54;98616.47;5071058;28;20121;-83
2022/10/11 01:25:07;;;;;;;10.90;8.10;;;;;;;13.20;86.32;98620.75;5088274;28;20640;-83
2022/10/11 01:28:19;;;;;;;11.95;8.27;;;;;;;13.25;86.15;98621.75;5088333;28;20039;-88
2022/10/11 01:30:46;;;;;;;13.40;9.00;;;;;;;13.31;85.86;98628.03;5088613;28;20028;-87
2022/10/11 01:33:47;;;;;;;18.17;8.98;;;;;;;13.31;85.80;98626.25;5064059;28;20554;-87
2022/10/11 01:36:27;;;;;;;13.00;9.07;;;;;;;13.36;85.73;98617.72;5103258;28;20107;-86
2022/10/11 01:39:14;;;;;;;11.10;8.45;;;;;;;13.36;85.53;98625.59;5087555;28;20134;-87
2022/10/11 01:41:50;;;;;;;14.63;8.35;;;;;;;13.35;85.80;98626.63;5083423;28;20048;-87
2022/10/11 01:44:16;;;;;;;14.60;8.88;;;;;;;13.39;85.91;98625.22;5074255;28;20035;-87
2022/10/11 01:46:42;;;;;;;11.15;8.77;;;;;;;13.42;85.84;98627.44;5079341;28;20059;-87
2022/10/11 01:49:08;;;;;;;11.95;8.32;;;;;;;13.41;85.69;98632.91;5095229;28;20031;-87
2022/10/11 01:51:45;;;;;;;15.40;9.20;;;;;;;13.39;85.84;98627.84;5091333;28;20055;-88
2022/10/11 01:55:03;;;;;;;10.48;8.30;;;;;;;13.42;86.50;98632.69;5091956;28;20043;-88
2022/10/11 01:58:19;;;;;;;12.25;8.73;;;;;;;13.51;86.04;98635.94;5078065;28;20032;-87
2022/10/11 02:00:58;;;;;;;15.48;8.48;;;;;;;13.57;85.72;98640.41;5051241;28;20045;-83
2022/10/11 02:04:01;;;;;;;13.70;8.68;;;;;;;13.55;85.41;98642.41;5085039;28;20029;-83
2022/10/11 02:06:54;;;;;;;16.67;8.85;;;;;;;13.54;85.75;98646.88;5084586;28;20082;-83
2022/10/11 02:10:12;;;;;;;9.82;8.63;;;;;;;13.46;85.66;98644.47;5084575;28;20100;-83
2022/10/11 02:13:22;;;;;;;11.93;8.13;;;;;;;13.30;86.60;98643.03;5057251;28;20056;-83
2022/10/11 02:15:51;;;;;;;12.35;8.02;;;;;;;13.34;86.99;98636.34;5089447;28;20044;-89
2022/10/11 02:18:25;;;;;;;10.50;8.52;;;;;;;13.30;87.05;98639.59;5092125;28;20061;-87
2022/10/11 02:20:52;;;;;;;10.05;7.80;;;;;;;13.26;87.78;98643.66;5086832;28;20040;-88
2022/10/11 02:23:35;;;;;;;11.77;8.23;;;;;;;13.20;88.21;98655.00;5077427;28;20036;-87
2022/10/11 02:26:05;;;;;;;9.88;7.75;;;;;;;13.15;87.89;98652.16;5080219;28;20046;-88
2022/10/11 02:28:35;;;;;;;11.05;8.23;;;;;;;13.02;88.31;98652.94;5089241;28;20091;-88
2022/10/11 02:31:05;;;;;;;12.63;8.77;;;;;;;12.97;88.54;98653.56;5087174;28;20039;-87
2022/10/11 02:33:44;;;;;;;10.75;8.35;;;;;;;12.97;88.64;98647.47;5087764;28;20036;-87
2022/10/11 02:36:38;;;;;;;14.18;9.85;;;;;;;12.99;88.63;98648.06;5084587;28;20131;-87
2022/10/11 02:39:14;;;;;;;15.50;8.82;;;;;;;12.89;88.47;98642.38;5088231;28;20040;-87
2022/10/11 02:41:42;;;;;;;13.93;9.20;;;;;;;12.96;88.87;98649.31;5097068;28;20035;-88
2022/10/11 02:44:20;;;;;;;14.85;9.48;;;;;;;12.95;88.65;98649.47;5087278;28;20509;-88
2022/10/11 02:46:48;;;;;;;13.38;8.95;;;;;;;13.00;89.18;98633.88;5086347;28;20491;-88
2022/10/11 02:49:16;;;;;;;11.20;8.75;;;;;;;13.08;88.38;98626.63;5092081;28;20046;-88
2022/10/11 02:51:42;;;;;;;10.60;8.30;;;;;;;13.23;87.98;98629.06;5087276;28;20721;-88
2022/10/11 02:54:08;;;;;;;12.90;9.32;;;;;;;13.29;87.46;98627.44;5077393;28;20124;-88
2022/10/11 02:56:33;;;;;;;11.75;8.40;;;;;;;13.38;87.06;98631.50;5082751;28;20052;-88
2022/10/11 02:58:59;;;;;;;10.65;8.27;;;;;;;13.40;87.08;98629.47;5090589;28;20032;-88
2022/10/11 03:01:24;;;;;;;14.93;8.45;;;;;;;13.41;86.72;98638.19;5076760;28;20033;-88
2022/10/11 03:03:50;;;;;;;13.23;8.45;;;;;;;13.41;86.55;98631.06;5085066;28;20075;-87
2022/10/11 03:06:15;;;;;;;14.20;8.52;;;;;;;13.43;86.32;98629.03;5090626;28;20119;-86
2022/10/11 03:08:40;;;;;;;11.80;7.53;;;;;;;13.49;85.77;98638.75;5085578;28;20028;-87
2022/10/11 03:11:06;;;;;;;11.57;8.25;;;;;;;13.48;86.14;98647.69;5089815;28;20055;-88
2022/10/11 03:13:32;;;;;;;12.75;9.18;;;;;;;13.45;86.14;98653.38;5078331;28;20144;-88
2022/10/11 03:15:59;;;;;;;12.43;9.88;;;;;;;13.41;86.52;98654.78;5083203;28;20120;-88
2022/10/11 03:18:24;;;;;;;9.88;8.15;;;;;;;13.36;87.34;98665.13;5077815;28;20071;-89
2022/10/11 03:20:50;;;;;;;13.00;9.20;;;;;;;13.35;86.81;98663.50;5090982;28;20119;-89
2022/10/11 03:23:15;;;;;;;11.98;9.00;;;;;;;13.41;86.53;98673.25;5090626;28;20028;-88
2022/10/11 03:25:41;;;;;;;11.80;9.38;;;;;;;13.39;86.64;98670.00;5084794;28;20044;-89
2022/10/11 03:28:06;;;;;;;13.85;10.13;;;;;;;13.30;86.64;98681.75;5090701;28;20044;-89
2022/10/11 03:30:32;;;;;;;16.55;9.88;;;;;;;13.33;86.75;98686.63;5087810;28;20040;-88
2022/10/11 03:32:57;;;;;;;13.75;8.82;;;;;;;13.33;86.85;98697.97;5090392;28;20115;-88
2022/10/11 03:35:23;;;;;;;14.85;9.65;;;;;;;13.29;86.83;98696.75;5090850;28;20032;-89
2022/10/11 03:37:48;;;;;;;12.00;9.50;;;;;;;13.34;86.60;98701.41;5089440;28;20127;-89
2022/10/11 03:40:14;;;;;;;14.88;9.45;;;;;;;13.29;86.71;98701.19;5086915;28;20119;-83
2022/10/11 03:42:40;;;;;;;12.88;9.25;;;;;;;13.31;86.78;98699.16;5085893;28;20040;-83
2022/10/11 03:45:07;;;;;;;13.30;9.57;;;;;;;13.36;86.71;98686.19;5084732;28;20051;-83
2022/10/11 03:47:38;;;;;;;12.32;9.20;;;;;;;13.42;86.94;98697.75;5085206;28;20028;-83
2022/10/11 03:50:09;;;;;;;11.23;9.48;;;;;;;13.40;86.46;98703.25;5081968;28;20494;-83
2022/10/11 03:52:34;;;;;;;;;;;;;;;13.46;86.65;98702.44;5080844;28;20384;-83
2022/10/11 03:55:00;;;;;;;14.13;9.30;;;;;;;13.48;86.44;98704.84;5083837;28;19920;-83
2022/10/11 03:57:25;;;;;;;11.95;9.10;;;;;;;13.46;86.35;98704.25;5082034;28;20435;-83
2022/10/11 03:59:51;;;;;;;13.02;9.05;;;;;;;13.47;86.39;98706.69;5082025;28;20050;-83
2022/10/11 04:02:16;;;;;;;12.02;9.95;;;;;;;13.48;86.68;98700.38;5080438;28;20039;-83
2022/10/11 04:04:42;;;;;;;14.18;9.25;;;;;;;13.52;86.74;98706.88;5082576;28;20376;-83
2022/10/11 04:07:08;;;;;;;13.60;9.52;;;;;;;13.34;86.80;98704.03;5081693;28;20205;-83
2022/10/11 04:09:34;;;;;;;16.45;9.43;;;;;;;13.34;87.62;98706.69;5083928;28;20039;-83
2022/10/11 04:12:00;;;;;;;13.25;9.35;;;;;;;13.37;87.43;98714.16;5080715;28;20044;-83
2022/10/11 04:14:25;;;;;;;14.38;9.10;;;;;;;13.40;87.48;98719.03;5086296;28;20055;-83
2022/10/11 04:16:51;;;;;;;12.07;8.80;;;;;;;13.42;87.32;98716.19;5087865;28;20040;-83
2022/10/11 04:19:16;;;;;;;11.98;8.88;;;;;;;13.37;87.26;98704.47;5088119;28;20052;-83
2022/10/11 04:21:42;;;;;;;10.77;9.00;;;;;;;13.47;87.04;98701.41;5084458;28;20114;-83
2022/10/11 04:24:11;;;;;;;11.73;9.13;;;;;;;13.53;87.11;98712.97;5085520;28;20039;-83
2022/10/11 04:26:36;;;;;;;12.80;8.80;;;;;;;13.49;87.01;98712.53;5082612;28;20044;-82
2022/10/11 04:29:03;;;;;;;10.57;9.38;;;;;;;13.50;86.78;98711.56;5086136;28;20063;-82
2022/10/11 04:31:29;;;;;;;16.20;9.48;;;;;;;13.49;87.00;98723.09;5086173;28;20032;-82
2022/10/11 04:33:55;;;;;;;16.08;9.55;;;;;;;13.46;86.96;98710.34;5088477;28;20093;-83
2022/10/11 04:36:22;;;;;;;10.88;9.07;;;;;;;13.50;86.96;98714.19;5087778;28;20032;-83
2022/10/11 04:38:47;;;;;;;15.45;9.60;;;;;;;13.50;86.94;98713.38;5087023;28;20060;-83
2022/10/11 04:41:14;;;;;;;11.55;8.50;;;;;;;13.51;86.74;98715.81;5070679;28;20519;-83
2022/10/11 04:43:40;;;;;;;12.45;8.73;;;;;;;13.55;86.77;98722.28;5085961;28;20131;-83
2022/10/11 04:46:07;;;;;;;11.65;8.65;;;;;;;13.57;86.49;98715.00;5087366;28;20455;-83
2022/10/11 04:48:33;;;;;;;15.65;9.55;;;;;;;13.55;86.13;98724.09;5100964;28;20108;-83
2022/10/11 04:50:58;;;;;;;12.27;8.40;;;;;;;13.52;86.60;98729.78;5086516;28;20441;-82
2022/10/11 04:53:24;;;;;;;12.90;8.57;;;;;;;13.44;86.67;98727.38;5088388;28;20480;-83
2022/10/11 04:56:02;;;;;;;12.43;8.52;;;;;;;13.49;86.92;98727.53;5085829;28;20040;-83
2022/10/11 04:58:30;;;;;;;13.63;9.20;;;;;;;13.50;86.94;98724.72;5082638;28;20089;-83
2022/10/11 05:00:56;;;;;;;13.27;9.35;;;;;;;13.45;87.19;98732.44;5086153;28;20028;-83
2022/10/11 05:03:23;;;;;;;12.15;8.85;;;;;;;13.48;87.22;98737.28;5085460;28;20460;-83
2022/10/11 05:05:49;;;;;;;12.48;8.68;;;;;;;13.46;87.24;98741.94;5083721;28;20111;-83
2022/10/11 05:08:15;;;;;;;15.32;8.93;;;;;;;13.49;87.16;98740.72;5081997;28;20116;-83
2022/10/11 05:10:41;;;;;;;15.30;9.07;;;;;;;13.49;86.95;98738.91;5088640;28;20043;-83
2022/10/11 05:13:06;;;;;;;14.68;8.93;;;;;;;13.49;86.81;98746.00;5087636;28;20047;-83
2022/10/11 05:15:33;;;;;;;11.07;8.52;;;;;;;13.50;87.14;98751.09;5090783;28;20040;-83
2022/10/11 05:17:58;;;;;;;10.95;8.35;;;;;;;13.58;86.99;98755.34;5086616;28;20054;-83
2022/10/11 05:20:24;;;;;;;11.10;8.80;;;;;;;13.51;86.90;98747.44;5086783;28;20105;-83
2022/10/11 05:22:50;;;;;;;14.85;9.23;;;;;;;13.53;86.71;98749.84;5083932;28;20044;-83
2022/10/11 05:25:15;;;;;;;12.77;8.52;;;;;;;13.52;87.10;98751.69;5087527;28;20036;-83
2022/10/11 05:27:41;;;;;;;13.90;10.10;;;;;;;13.47;87.18;98751.47;5087128;28;20100;-82
2022/10/11 05:30:07;;;;;;;15.77;11.38;;;;;;;13.49;87.08;98749.44;5086792;28;20039;-83
2022/10/11 05:32:32;;;;;;;13.75;9.68;;;;;;;13.51;86.95;98757.16;5083571;28;20039;-83
2022/10/11 05:34:58;;;;;;;16.58;10.07;;;;;;;13.49;86.50;98754.72;5085582;28;20024;-82
2022/10/11 05:37:24;;;;;;;13.43;9.98;;;;;;;13.46;86.48;98764.84;5087149;28;20036;-83
2022/10/11 05:39:49;;;;;;;17.63;10.45;;;;;;;13.42;86.71;98767.06;5085518;28;20165;-82
2022/10/11 05:42:15;;;;;;;15.63;9.73;;;;;;;13.38;86.43;98776.41;5085362;28;20035;-82
2022/10/11 05:44:40;;;;;;;14.30;9.88;;;;;;;13.34;86.91;98760.19;5083130;28;20604;-82
2022/10/11 05:47:06;;;;;;;18.02;11.45;;;;;;;13.36;87.00;98781.84;5085827;28;20051;-83
2022/10/11 05:49:31;;;;;;;16.65;10.13;;;;;;;13.42;87.02;98776.81;5084648;28;20096;-82
2022/10/11 05:51:57;;;;;;;14.38;10.18;;;;;;;13.41;87.22;98781.25;5084156;28;20040;-82
2022/10/11 05:54:22;;;;;;;14.32;9.98;;;;;;;13.44;87.05;98796.69;5084934;28;20036;-83
2022/10/11 05:56:48;;;;;;;15.52;10.13;;;;;;;13.45;87.44;98786.97;5074567;28;20040;-82
2022/10/11 05:59:14;;;;;;;14.80;9.68;;;;;;;13.44;87.59;98790.59;5077353;28;20126;-83
2022/10/11 06:01:39;;;;;;;12.98;10.45;;;;;;;13.46;87.40;98788.56;5082613;28;20170;-83
2022/10/11 06:04:05;;;;;;;14.48;10.02;;;;;;;13.35;87.56;98782.06;5080824;28;20036;-82
2022/10/11 06:06:31;;;;;;;17.75;10.73;;;;;;;13.38;87.32;98793.03;5081665;28;20174;-82
2022/10/11 06:08:56;;;;;;;15.90;10.32;;;;;;;13.37;87.41;98807.22;5076644;28;20032;-83
2022/10/11 06:11:26;;;;;;;12.85;10.13;;;;;;;13.42;87.53;98795.25;5080093;28;20032;-90
2022/10/11 06:13:59;;;;;;;20.30;11.65;;;;;;;13.39;87.34;98809.66;5076641;28;20091;-89
2022/10/11 06:16:27;;;;;;;19.10;11.45;;;;;;;13.37;88.05;98811.66;5088884;28;20036;-90
2022/10/11 06:18:55;;;;;;;15.32;11.43;;;;;;;13.31;87.92;98804.53;5084736;28;20410;-83
2022/10/11 06:21:21;;;;;;;15.98;11.05;;;;;;;13.37;88.00;98807.22;5086767;28;20046;-82
2022/10/11 06:23:51;;;;;;;14.18;10.65;;;;;;;13.24;87.78;98803.72;5084875;28;20042;-82
2022/10/11 06:26:17;;;;;;;15.95;10.13;;;;;;;13.35;88.49;98821.59;5093710;28;20078;-82
2022/10/11 06:28:44;;;;;;;12.85;10.73;;;;;;;13.37;88.46;98820.41;5084959;28;20047;-83
2022/10/11 06:31:10;;;;;;;15.75;10.68;;;;;;;13.45;88.63;98822.03;5085716;28;20032;-83
2022/10/11 06:33:36;;;;;;;16.02;10.85;;;;;;;13.45;88.02;98826.47;5085513;28;20566;-82
2022/10/11 06:36:11;;;;;;;14.20;10.40;;;;;;;13.46;87.85;98828.09;5081738;28;20061;-82
2022/10/11 06:38:36;;;;;;;16.85;10.93;;;;;;;13.41;87.85;98836.59;5082917;28;20479;-82
2022/10/11 06:41:25;;;;;;;18.42;11.65;;;;;;;13.24;88.88;98848.50;5082210;28;20093;-82
2022/10/11 06:43:51;;;;;;;15.63;10.60;;;;;;;13.25;88.73;98845.66;5082387;28;20039;-85
2022/10/11 06:46:19;;;;;;;15.63;11.25;;;;;;;13.39;88.67;98852.63;5076302;28;20038;-83
2022/10/11 06:48:46;;;;;;;15.98;11.88;;;;;;;13.50;88.84;98858.31;5083174;28;20097;-83
2022/10/11 06:51:15;;;;;;;14.77;10.30;;;;;;;13.64;87.95;98858.13;5084034;28;20028;-83
2022/10/11 06:53:41;;;;;;;14.60;10.63;;;;;;;13.70;87.14;98863.63;5082995;28;20097;-83
2022/10/11 06:56:11;;;;;;;18.98;11.30;;;;;;;13.74;87.13;98867.50;5081493;28;20036;-83
2022/10/11 06:58:38;;;;;;;15.40;10.32;;;;;;;13.78;87.01;98873.97;5079825;28;20045;-82
2022/10/11 07:01:09;;;;;;;17.65;10.73;;;;;;;13.77;87.14;98867.88;5079807;28;20035;-83
2022/10/11 07:03:35;;;;;;;13.45;9.95;;;;;;;13.78;87.14;98873.97;5080318;28;20040;-83
2022/10/11 07:06:08;;;;;;;14.02;9.70;;;;;;;13.84;86.99;98875.78;5082954;28;20070;-84
2022/10/11 07:08:34;;;;;;;15.15;9.70;;;;;;;13.81;86.82;98873.56;5082154;28;20038;-83
2022/10/11 07:11:06;;;;;;;12.88;10.88;;;;;;;13.78;87.07;98876.59;5085467;28;20044;-83
2022/10/11 07:13:32;;;;;;;17.50;10.73;;;;;;;13.83;87.14;98885.53;5081230;28;20063;-83
2022/10/11 07:16:18;;;;;;;15.05;9.77;;;;;;;13.85;87.03;98890.59;5084834;28;20046;-88
2022/10/11 07:18:45;;;;;;;11.85;9.82;;;;;;;13.84;87.29;98889.78;5081617;28;20075;-89
2022/10/11 07:21:13;;;;;;;14.98;9.75;;;;;;;13.90;87.33;98894.25;5085387;28;20048;-88
2022/10/11 07:23:40;;;;;;;13.50;10.20;;;;;;;13.93;87.34;98898.34;5085462;28;20028;-88
2022/10/11 07:26:07;;;;;;;17.33;10.05;;;;;;;13.96;87.37;98900.56;5084479;28;20043;-89
2022/10/11 07:28:35;;;;;;;14.73;10.18;;;;;;;14.01;87.15;98907.88;5086467;28;20129;-90
2022/10/11 07:31:06;;;;;;;11.80;9.77;;;;;;;13.98;86.93;98908.28;5085672;28;20067;-89
2022/10/11 07:33:32;;;;;;;14.93;10.77;;;;;;;13.91;86.45;98911.72;5085814;28;20036;-89
2022/10/11 07:35:58;;;;;;;15.75;10.70;;;;;;;13.95;87.34;98908.66;5086752;28;20120;-90
2022/10/11 07:38:24;;;;;;;15.55;10.15;;;;;;;13.96;86.57;98908.47;5087268;28;20074;-90
2022/10/11 07:40:50;;;;;;;16.10;9.95;;;;;;;13.96;86.73;98908.47;5086521;28;20044;-90
2022/10/11 07:43:15;;;;;;;15.18;10.70;;;;;;;13.96;85.20;98920.84;5086028;28;20035;-90
2022/10/11 07:45:44;;;;;;;20.00;10.52;;;;;;;13.95;86.07;98916.59;5086787;28;20060;-90
2022/10/11 07:48:10;;;;;;;12.77;9.65;;;;;;;14.01;86.73;98915.78;5086566;28;20044;-90
2022/10/11 07:50:36;;;;;;;14.20;9.57;;;;;;;14.08;86.56;98917.41;5088382;28;20057;-89
2022/10/11 07:53:02;;;;;;;15.40;9.95;;;;;;;14.14;86.65;98910.50;5088550;28;20065;-90
2022/10/11 07:55:29;;;;;;;14.18;10.00;;;;;;;14.26;86.42;98913.34;5086733;28;20410;-90
2022/10/11 07:57:56;;;;;;;18.10;9.68;;;;;;;14.30;85.78;98909.31;5087646;28;20423;-90
2022/10/11 08:00:23;;;;;;;19.38;10.27;;;;;;;14.37;85.77;98920.66;5086162;28;20049;-90
2022/10/11 08:02:48;;;;;;;17.02;10.45;;;;;;;14.46;86.19;98924.72;5087645;28;20394;-90
2022/10/11 08:05:14;;;;;;;15.50;10.25;;;;;;;14.44;84.99;98917.00;5087605;28;20048;-90
2022/10/11 08:07:40;;;;;;;14.63;9.57;;;;;;;14.53;85.09;98925.56;5091357;28;20050;-90
2022/10/11 08:10:07;;;;;;;13.30;9.73;;;;;;;14.65;84.12;98928.38;5091749;28;20036;-90
2022/10/11 08:12:32;;;;;;;13.77;9.45;;;;;;;14.75;84.39;98920.03;5071897;28;20062;-90
2022/10/11 08:15:17;;;;;;;15.27;9.05;;;;;;;14.78;81.10;98922.28;5090414;28;20046;-89
2022/10/11 08:17:42;;;;;;;17.77;9.43;;;;;;;14.97;83.16;98921.41;5090672;28;20032;-89
2022/10/11 08:20:08;;;;;;;13.00;9.10;;;;;;;15.15;82.88;98916.28;5090762;28;20044;-89
2022/10/11 08:22:34;;;;;;;13.20;9.98;;;;;;;15.26;81.46;98926.19;5090628;28;20445;-89
2022/10/11 08:24:59;;;;;;;12.18;8.82;;;;;;;15.37;80.31;98926.56;5090868;28;20040;-89
2022/10/11 08:27:25;;;;;;;12.85;10.07;;;;;;;15.54;80.42;98925.06;5092071;28;20093;-89
2022/10/11 08:29:50;;;;;;;12.88;8.88;;;;;;;15.56;77.50;98925.66;5082620;28;20082;-89
2022/10/11 08:32:16;;;;;;;13.27;8.90;;;;;;;15.67;75.62;98927.66;5083391;28;20127;-89
2022/10/11 08:34:42;;;;;;;15.05;8.70;;;;;;;15.90;78.11;98928.97;5073484;28;20028;-89
2022/10/11 08:37:07;;;;;;;12.20;8.60;;;;;;;16.04;76.65;98923.34;5075674;28;20055;-90
2022/10/11 08:39:33;;;;;;;12.23;8.13;;;;;;;16.05;76.28;98921.50;5094689;28;20036;-89
2022/10/11 08:42:10;;;;;;;11.65;7.45;;;;;;;16.08;75.64;98923.75;5089749;28;20040;-90
2022/10/11 08:44:54;;;;;;;10.35;7.30;;;;;;;16.05;75.36;98930.25;5086935;28;20028;-88
2022/10/11 08:47:29;;;;;;;11.93;7.90;;;;;;;15.87;75.60;98926.72;5080510;28;20033;-88
2022/10/11 08:49:56;;;;;;;10.57;7.40;;;;;;;15.91;73.83;98928.75;5085440;28;20046;-89
2022/10/11 08:52:40;;;;;;;12.15;7.28;;;;;;;15.86;75.24;98919.81;5099866;28;20036;-89
2022/10/11 08:55:20;;;;;;;10.93;7.15;;;;;;;15.91;72.99;98928.75;5091170;28;20028;-89
2022/10/11 08:57:55;;;;;;;12.73;7.40;;;;;;;15.96;75.36;98941.34;5087714;28;20089;-88
2022/10/11 09:00:23;;;;;;;15.55;7.53;;;;;;;16.11;75.61;98939.19;5089409;28;20054;-89
2022/10/11 09:03:36;;;;;;;11.50;6.95;;;;;;;16.14;73.94;98943.25;5082825;28;20556;-89
2022/10/11 09:06:22;;;;;;;10.88;7.35;;;;;;;16.21;73.97;98936.88;5011250;28;20056;-88
2022/10/11 09:09:21;;;;;;;12.25;7.20;;;;;;;16.56;74.82;98929.25;5011313;28;20044;-89
2022/10/11 09:12:12;;;;;;;12.07;7.63;;;;;;;16.86;73.46;98931.25;5079007;28;20096;-87
2022/10/11 09:14:46;;;;;;;11.98;7.00;;;;;;;17.05;73.36;98937.34;5091720;28;20043;-88
2022/10/11 09:17:48;;;;;;;11.27;6.97;;;;;;;16.93;70.02;98936.47;5078523;28;20046;-89
2022/10/11 09:20:36;;;;;;;10.02;6.55;;;;;;;17.05;70.83;98935.50;5088037;28;20055;-88
2022/10/11 09:23:45;;;;;;;8.57;7.00;;;;;;;17.08;70.60;98921.81;5093126;28;20024;-88
2022/10/11 09:26:24;;;;;;;10.88;7.00;;;;;;;16.99;69.23;98940.88;5047364;28;20052;-88
2022/10/11 09:29:03;;;;;;;10.70;7.05;;;;;;;16.91;73.16;98933.22;5087729;28;20028;-89
2022/10/11 09:31:29;;;;;;;10.60;7.40;;;;;;;16.97;71.23;98937.63;5081146;28;20400;-91
2022/10/11 09:33:58;;;;;;;13.00;7.68;;;;;;;16.91;71.99;98935.84;5079930;28;20028;-91
2022/10/11 09:36:48;;;;;;;10.18;7.18;;;;;;;16.93;71.61;98936.47;5079434;28;20067;-87
2022/10/11 09:39:35;;;;;;;9.48;6.93;;;;;;;16.71;70.38;98934.22;5101970;28;20087;-90
2022/10/11 09:42:06;;;;;;;13.57;7.47;;;;;;;16.75;70.30;98938.06;5081458;28;20036;-90
2022/10/11 09:44:44;;;;;;;;;;;;;;;16.68;72.13;98931.19;5085122;28;20140;-89
2022/10/11 09:47:18;;;;;;;10.70;7.38;;;;;;;16.73;71.19;98928.69;5086462;28;19908;-90
2022/10/11 09:49:52;;;;;;;14.27;6.90;;;;;;;16.88;72.64;98941.63;5077909;28;20064;-88
2022/10/11 09:52:21;;;;;;;9.95;6.63;;;;;;;16.93;70.52;98939.13;5072603;28;20039;-90
2022/10/11 09:55:00;;;;;;;10.27;7.35;;;;;;;16.94;68.93;98943.38;5078972;28;20044;-88
2022/10/11 09:57:35;;;;;;;10.82;7.63;;;;;;;17.18;71.54;98945.16;5080849;28;20032;-90
2022/10/11 10:00:13;;;;;;;7.82;7.00;;;;;;;17.13;68.75;98931.75;5078734;28;20064;-89
2022/10/11 10:02:48;;;;;;;11.15;7.72;;;;;;;17.25;70.33;98924.69;5073004;28;20043;-88
2022/10/11 10:05:23;;;;;;;10.45;7.20;;;;;;;17.38;69.82;98929.81;5081895;28;20089;-89
2022/10/11 10:08:09;;;;;;;10.70;7.93;;;;;;;17.18;67.04;98933.75;5086723;28;20431;-87
2022/10/11 10:10:44;;;;;;;10.10;7.63;;;;;;;17.19;70.84;98930.88;5086565;28;20094;-90
2022/10/11 10:15:49;;;;;;;10.07;7.57;;;;;;;17.49;68.61;98943.34;5086049;28;20402;-84
2022/10/11 10:18:23;;;;;;;;;;;;;;;17.53;68.52;98933.94;5087064;28;20027;-84
2022/10/11 10:20:59;;;;;;;10.85;7.60;;;;;;;17.88;70.02;98934.09;5084318;28;20363;-84
2022/10/11 10:23:36;;;;;;;9.50;7.45;;;;;;;18.05;66.83;98940.38;5081822;28;20111;-84
2022/10/11 10:26:24;;;;;;;14.73;8.60;;;;;;;17.80;66.61;98932.56;5087286;28;20039;-84
2022/10/11 10:29:02;;;;;;;13.10;8.25;;;;;;;17.67;66.85;98940.66;5083577;28;20043;-84
2022/10/11 10:31:51;;;;;;;11.30;7.78;;;;;;;17.61;68.66;98946.88;5076150;28;20040;-84
2022/10/11 10:34:28;;;;;;;13.95;7.93;;;;;;;17.53;69.49;98947.19;5089932;28;20036;-83
2022/10/11 10:37:08;;;;;;;9.10;6.85;;;;;;;17.52;68.97;98942.94;5082284;28;20477;-84
2022/10/11 10:39:48;;;;;;;10.40;6.78;;;;;;;17.51;70.23;98944.78;5075742;28;20039;-84
2022/10/11 10:42:18;;;;;;;8.95;7.13;;;;;;;17.55;70.97;98955.72;5076172;28;20047;-83
2022/10/11 10:44:52;;;;;;;12.10;7.45;;;;;;;17.63;69.56;98952.75;5075809;28;20031;-83
2022/10/11 10:47:41;;;;;;;10.80;7.78;;;;;;;17.59;69.35;98949.75;5082153;28;20027;-83
2022/10/11 10:50:37;;;;;;;9.80;7.35;;;;;;;17.70;67.41;98947.38;5078903;28;20032;-84
2022/10/11 10:53:27;;;;;;;10.98;7.40;;;;;;;17.81;67.31;98939.50;5077155;28;20039;-84
2022/10/11 10:56:05;;;;;;;11.32;7.22;;;;;;;17.89;67.60;98941.81;5089443;28;20159;-83
2022/10/11 10:59:27;;;;;;;10.10;6.85;;;;;;;17.96;67.18;98940.91;5080146;28;20373;-84
2022/10/11 11:02:09;;;;;;;9.63;6.50;;;;;;;17.95;66.82;98939.31;5078387;28;20067;-83
2022/10/11 11:04:36;;;;;;;11.18;7.35;;;;;;;17.86;66.67;98936.97;5083454;28;20063;-83
2022/10/11 11:07:40;;;;;;;9.82;7.07;;;;;;;18.22;67.40;98934.41;5080894;28;20141;-84
2022/10/11 11:10:21;;;;;;;8.05;6.30;;;;;;;18.35;65.85;98923.56;5081741;28;20035;-84
2022/10/11 11:13:14;;;;;;;13.82;7.80;;;;;;;18.36;65.52;98926.00;5075562;28;20036;-84
2022/10/11 11:15:57;;;;;;;9.43;6.63;;;;;;;18.51;65.31;98938.81;5079008;28;20040;-84
2022/10/11 11:18:57;;;;;;;9.50;7.00;;;;;;;18.34;65.81;98933.38;5081253;28;20024;-84
2022/10/11 11:21:35;;;;;;;11.45;6.82;;;;;;;18.22;65.79;98935.19;5078522;28;20118;-84
2022/10/11 11:24:00;;;;;;;10.57;7.15;;;;;;;18.09;68.43;98932.75;5077200;28;20096;-83
2022/10/11 11:26:57;;;;;;;12.48;7.60;;;;;;;17.90;67.86;98932.81;5081295;28;20422;-84
2022/10/11 11:30:03;;;;;;;11.82;7.18;;;;;;;17.76;68.37;98928.75;5080260;28;20380;-84
2022/10/11 11:32:56;;;;;;;10.68;6.53;;;;;;;17.67;68.40;98922.09;5077917;28;20527;-84
2022/10/11 11:35:40;;;;;;;12.30;7.13;;;;;;;17.63;68.65;98931.53;5081286;28;20054;-84
2022/10/11 11:38:45;;;;;;;8.73;6.80;;;;;;;17.45;69.09;98923.63;5080665;28;20032;-84
2022/10/11 11:41:42;;;;;;;11.93;6.95;;;;;;;17.36;69.55;98931.88;5081178;28;20109;-84
2022/10/11 11:44:20;;;;;;;11.25;7.03;;;;;;;17.33;69.78;98920.91;5076711;28;20452;-84
2022/10/11 11:46:56;;;;;;;11.07;7.05;;;;;;;17.41;70.81;98928.56;5084084;28;20036;-84
2022/10/11 11:49:52;;;;;;;9.73;7.43;;;;;;;17.10;68.33;98922.41;5082782;28;20031;-84
2022/10/11 11:52:43;;;;;;;12.07;6.88;;;;;;;17.21;69.68;98923.50;5082928;28;20036;-84
2022/10/11 11:55:41;;;;;;;10.38;6.63;;;;;;;17.27;69.66;98917.31;5084712;28;20162;-84